sensor_id;sensor_type;location;lat;lon;timestamp;P1;durP1;ratioP1;P2;durP2;ratioP2
15266;SDS011;7735;49.144;8.668;2023-06-22T00:00:46;5.10;;;3.53;;
15266;SDS011;7735;49.144;8.668;2023-06-22T00:03:13;4.20;;;3.20;;
15266;SDS011;7735;49.144;8.668;2023-06-22T00:05:39;6.00;;;3.63;;
15266;SDS011;7735;49.144;8.668;2023-06-22T00:08:06;4.28;;;3.28;;
15266;SDS011;7735;49.144;8.668;2023-06-22T00:10:32;5.40;;;3.80;;
15266;SDS011;7735;49.144;8.668;2023-06-22T00:13:00;4.77;;;3.53;;
15266;SDS011;7735;49.144;8.668;2023-06-22T00:15:28;4.73;;;3.43;;
15266;SDS011;7735;49.144;8.668;2023-06-22T00:17:55;5.18;;;3.78;;
15266;SDS011;7735;49.144;8.668;2023-06-22T00:20:22;5.13;;;3.63;;
15266;SDS011;7735;49.144;8.668;2023-06-22T00:22:52;5.17;;;3.63;;
15266;SDS011;7735;49.144;8.668;2023-06-22T00:25:19;4.88;;;3.45;;
15266;SDS011;7735;49.144;8.668;2023-06-22T00:27:46;6.43;;;3.57;;
15266;SDS011;7735;49.144;8.668;2023-06-22T00:30:13;6.30;;;4.00;;
15266;SDS011;7735;49.144;8.668;2023-06-22T00:32:43;7.23;;;3.93;;
15266;SDS011;7735;49.144;8.668;2023-06-22T00:35:10;5.73;;;3.70;;
15266;SDS011;7735;49.144;8.668;2023-06-22T00:37:37;7.30;;;3.77;;
15266;SDS011;7735;49.144;8.668;2023-06-22T00:40:07;5.60;;;3.90;;
15266;SDS011;7735;49.144;8.668;2023-06-22T00:42:36;5.70;;;3.67;;
15266;SDS011;7735;49.144;8.668;2023-06-22T00:45:03;6.60;;;3.93;;
15266;SDS011;7735;49.144;8.668;2023-06-22T00:47:30;6.40;;;4.00;;
15266;SDS011;7735;49.144;8.668;2023-06-22T00:49:58;6.30;;;3.77;;
15266;SDS011;7735;49.144;8.668;2023-06-22T00:52:25;5.73;;;3.50;;
15266;SDS011;7735;49.144;8.668;2023-06-22T00:54:54;10.77;;;4.30;;
15266;SDS011;7735;49.144;8.668;2023-06-22T00:57:22;7.77;;;3.37;;
15266;SDS011;7735;49.144;8.668;2023-06-22T00:59:53;8.17;;;3.67;;
15266;SDS011;7735;49.144;8.668;2023-06-22T01:02:20;4.87;;;3.87;;
15266;SDS011;7735;49.144;8.668;2023-06-22T01:04:46;5.03;;;3.50;;
15266;SDS011;7735;49.144;8.668;2023-06-22T01:07:16;8.13;;;3.80;;
15266;SDS011;7735;49.144;8.668;2023-06-22T01:09:49;5.13;;;3.63;;
15266;SDS011;7735;49.144;8.668;2023-06-22T01:12:22;8.47;;;4.53;;
15266;SDS011;7735;49.144;8.668;2023-06-22T01:14:52;4.83;;;3.90;;
15266;SDS011;7735;49.144;8.668;2023-06-22T01:17:23;5.47;;;4.00;;
15266;SDS011;7735;49.144;8.668;2023-06-22T01:19:54;5.93;;;4.10;;
15266;SDS011;7735;49.144;8.668;2023-06-22T01:22:23;7.10;;;3.77;;
15266;SDS011;7735;49.144;8.668;2023-06-22T01:24:55;7.87;;;4.13;;
15266;SDS011;7735;49.144;8.668;2023-06-22T01:27:36;6.60;;;3.60;;
15266;SDS011;7735;49.144;8.668;2023-06-22T01:30:12;5.70;;;3.67;;
15266;SDS011;7735;49.144;8.668;2023-06-22T01:32:42;5.43;;;3.87;;
15266;SDS011;7735;49.144;8.668;2023-06-22T01:35:09;5.43;;;3.47;;
15266;SDS011;7735;49.144;8.668;2023-06-22T01:37:38;5.73;;;3.83;;
15266;SDS011;7735;49.144;8.668;2023-06-22T01:40:05;10.77;;;4.07;;
15266;SDS011;7735;49.144;8.668;2023-06-22T01:42:34;6.83;;;4.43;;
15266;SDS011;7735;49.144;8.668;2023-06-22T01:45:01;6.93;;;4.30;;
15266;SDS011;7735;49.144;8.668;2023-06-22T01:47:30;6.90;;;4.07;;
15266;SDS011;7735;49.144;8.668;2023-06-22T01:49:57;6.13;;;4.30;;
15266;SDS011;7735;49.144;8.668;2023-06-22T01:52:24;6.53;;;4.43;;
15266;SDS011;7735;49.144;8.668;2023-06-22T01:54:50;6.67;;;4.20;;
15266;SDS011;7735;49.144;8.668;2023-06-22T01:57:17;5.83;;;4.00;;
15266;SDS011;7735;49.144;8.668;2023-06-22T01:59:46;5.63;;;4.20;;
15266;SDS011;7735;49.144;8.668;2023-06-22T02:02:18;6.57;;;4.30;;
15266;SDS011;7735;49.144;8.668;2023-06-22T02:04:55;7.07;;;4.20;;
15266;SDS011;7735;49.144;8.668;2023-06-22T02:07:26;9.07;;;4.47;;
15266;SDS011;7735;49.144;8.668;2023-06-22T02:09:57;6.03;;;3.90;;
15266;SDS011;7735;49.144;8.668;2023-06-22T02:12:26;7.53;;;4.30;;
15266;SDS011;7735;49.144;8.668;2023-06-22T02:14:55;6.77;;;4.77;;
15266;SDS011;7735;49.144;8.668;2023-06-22T02:17:22;7.07;;;3.90;;
15266;SDS011;7735;49.144;8.668;2023-06-22T02:19:50;6.13;;;4.27;;
15266;SDS011;7735;49.144;8.668;2023-06-22T02:22:18;6.73;;;4.27;;
15266;SDS011;7735;49.144;8.668;2023-06-22T02:24:45;6.27;;;4.03;;
15266;SDS011;7735;49.144;8.668;2023-06-22T02:27:12;7.47;;;4.13;;
15266;SDS011;7735;49.144;8.668;2023-06-22T02:29:38;5.67;;;4.13;;
15266;SDS011;7735;49.144;8.668;2023-06-22T02:32:05;5.43;;;3.90;;
15266;SDS011;7735;49.144;8.668;2023-06-22T02:34:32;6.13;;;4.40;;
15266;SDS011;7735;49.144;8.668;2023-06-22T02:36:59;5.90;;;4.60;;
15266;SDS011;7735;49.144;8.668;2023-06-22T02:39:29;6.40;;;4.57;;
15266;SDS011;7735;49.144;8.668;2023-06-22T02:41:55;6.47;;;4.47;;
15266;SDS011;7735;49.144;8.668;2023-06-22T02:44:22;6.60;;;4.50;;
15266;SDS011;7735;49.144;8.668;2023-06-22T02:46:49;5.17;;;3.97;;
15266;SDS011;7735;49.144;8.668;2023-06-22T02:49:16;10.07;;;4.40;;
15266;SDS011;7735;49.144;8.668;2023-06-22T02:51:44;5.53;;;4.00;;
15266;SDS011;7735;49.144;8.668;2023-06-22T02:54:12;8.00;;;4.90;;
15266;SDS011;7735;49.144;8.668;2023-06-22T02:56:40;9.63;;;4.33;;
15266;SDS011;7735;49.144;8.668;2023-06-22T02:59:08;8.70;;;4.60;;
15266;SDS011;7735;49.144;8.668;2023-06-22T03:01:36;7.70;;;4.53;;
15266;SDS011;7735;49.144;8.668;2023-06-22T03:04:05;5.93;;;4.20;;
15266;SDS011;7735;49.144;8.668;2023-06-22T03:06:32;5.90;;;4.47;;
15266;SDS011;7735;49.144;8.668;2023-06-22T03:08:59;6.10;;;4.73;;
15266;SDS011;7735;49.144;8.668;2023-06-22T03:11:29;5.20;;;4.70;;
15266;SDS011;7735;49.144;8.668;2023-06-22T03:13:57;8.97;;;4.83;;
15266;SDS011;7735;49.144;8.668;2023-06-22T03:16:23;8.33;;;4.80;;
15266;SDS011;7735;49.144;8.668;2023-06-22T03:18:50;7.07;;;4.70;;
15266;SDS011;7735;49.144;8.668;2023-06-22T03:21:18;7.40;;;4.57;;
15266;SDS011;7735;49.144;8.668;2023-06-22T03:23:45;7.77;;;5.10;;
15266;SDS011;7735;49.144;8.668;2023-06-22T03:26:11;8.37;;;4.90;;
15266;SDS011;7735;49.144;8.668;2023-06-22T03:28:38;9.63;;;4.50;;
15266;SDS011;7735;49.144;8.668;2023-06-22T03:31:06;7.63;;;5.10;;
15266;SDS011;7735;49.144;8.668;2023-06-22T03:33:33;10.17;;;5.30;;
15266;SDS011;7735;49.144;8.668;2023-06-22T03:35:59;5.70;;;4.50;;
15266;SDS011;7735;49.144;8.668;2023-06-22T03:38:26;7.37;;;5.33;;
15266;SDS011;7735;49.144;8.668;2023-06-22T03:40:53;7.77;;;4.80;;
15266;SDS011;7735;49.144;8.668;2023-06-22T03:43:20;8.53;;;4.30;;
15266;SDS011;7735;49.144;8.668;2023-06-22T03:45:46;6.97;;;4.53;;
15266;SDS011;7735;49.144;8.668;2023-06-22T03:48:14;7.50;;;4.40;;
15266;SDS011;7735;49.144;8.668;2023-06-22T03:50:41;6.97;;;4.50;;
15266;SDS011;7735;49.144;8.668;2023-06-22T03:53:09;7.03;;;4.30;;
15266;SDS011;7735;49.144;8.668;2023-06-22T03:55:35;9.07;;;4.60;;
15266;SDS011;7735;49.144;8.668;2023-06-22T03:58:02;8.50;;;4.63;;
15266;SDS011;7735;49.144;8.668;2023-06-22T04:00:33;8.73;;;4.77;;
15266;SDS011;7735;49.144;8.668;2023-06-22T04:03:00;5.80;;;4.73;;
15266;SDS011;7735;49.144;8.668;2023-06-22T04:05:28;10.03;;;5.53;;
15266;SDS011;7735;49.144;8.668;2023-06-22T04:07:56;8.53;;;5.03;;
15266;SDS011;7735;49.144;8.668;2023-06-22T04:10:22;7.07;;;5.00;;
15266;SDS011;7735;49.144;8.668;2023-06-22T04:12:49;9.47;;;5.03;;
15266;SDS011;7735;49.144;8.668;2023-06-22T04:15:15;9.20;;;5.27;;
15266;SDS011;7735;49.144;8.668;2023-06-22T04:17:42;9.03;;;4.97;;
15266;SDS011;7735;49.144;8.668;2023-06-22T04:20:09;8.00;;;5.10;;
15266;SDS011;7735;49.144;8.668;2023-06-22T04:22:37;7.50;;;5.07;;
15266;SDS011;7735;49.144;8.668;2023-06-22T04:25:05;9.10;;;5.60;;
15266;SDS011;7735;49.144;8.668;2023-06-22T04:27:33;9.07;;;5.30;;
15266;SDS011;7735;49.144;8.668;2023-06-22T04:30:02;8.57;;;5.43;;
15266;SDS011;7735;49.144;8.668;2023-06-22T04:32:29;10.07;;;4.90;;
15266;SDS011;7735;49.144;8.668;2023-06-22T04:34:56;7.37;;;5.40;;
15266;SDS011;7735;49.144;8.668;2023-06-22T04:37:28;7.43;;;5.27;;
15266;SDS011;7735;49.144;8.668;2023-06-22T04:39:56;9.23;;;5.20;;
15266;SDS011;7735;49.144;8.668;2023-06-22T04:42:29;7.70;;;4.93;;
15266;SDS011;7735;49.144;8.668;2023-06-22T04:45:13;10.30;;;4.97;;
15266;SDS011;7735;49.144;8.668;2023-06-22T04:47:40;7.30;;;4.93;;
15266;SDS011;7735;49.144;8.668;2023-06-22T04:50:16;10.70;;;4.97;;
15266;SDS011;7735;49.144;8.668;2023-06-22T04:52:43;7.00;;;5.40;;
15266;SDS011;7735;49.144;8.668;2023-06-22T04:55:14;8.83;;;5.40;;
15266;SDS011;7735;49.144;8.668;2023-06-22T04:57:47;13.90;;;5.57;;
15266;SDS011;7735;49.144;8.668;2023-06-22T05:00:15;9.67;;;5.60;;
15266;SDS011;7735;49.144;8.668;2023-06-22T05:02:43;9.67;;;5.43;;
15266;SDS011;7735;49.144;8.668;2023-06-22T05:05:12;9.97;;;6.07;;
15266;SDS011;7735;49.144;8.668;2023-06-22T05:07:40;8.47;;;5.13;;
15266;SDS011;7735;49.144;8.668;2023-06-22T05:10:09;8.40;;;4.97;;
15266;SDS011;7735;49.144;8.668;2023-06-22T05:12:38;7.33;;;4.60;;
15266;SDS011;7735;49.144;8.668;2023-06-22T05:15:06;7.10;;;4.33;;
15266;SDS011;7735;49.144;8.668;2023-06-22T05:17:34;8.53;;;5.37;;
15266;SDS011;7735;49.144;8.668;2023-06-22T05:20:07;7.07;;;5.13;;
15266;SDS011;7735;49.144;8.668;2023-06-22T05:25:23;11.17;;;5.33;;
15266;SDS011;7735;49.144;8.668;2023-06-22T05:27:58;11.20;;;5.60;;
15266;SDS011;7735;49.144;8.668;2023-06-22T05:30:25;6.77;;;5.50;;
15266;SDS011;7735;49.144;8.668;2023-06-22T05:33:31;12.93;;;6.43;;
15266;SDS011;7735;49.144;8.668;2023-06-22T05:38:44;9.97;;;5.30;;
15266;SDS011;7735;49.144;8.668;2023-06-22T05:41:11;8.07;;;5.70;;
15266;SDS011;7735;49.144;8.668;2023-06-22T05:43:40;9.17;;;5.97;;
15266;SDS011;7735;49.144;8.668;2023-06-22T05:46:08;9.83;;;5.70;;
15266;SDS011;7735;49.144;8.668;2023-06-22T05:48:34;8.77;;;5.27;;
15266;SDS011;7735;49.144;8.668;2023-06-22T05:51:01;9.07;;;5.87;;
15266;SDS011;7735;49.144;8.668;2023-06-22T05:53:28;9.33;;;5.87;;
15266;SDS011;7735;49.144;8.668;2023-06-22T05:55:55;13.03;;;5.93;;
15266;SDS011;7735;49.144;8.668;2023-06-22T05:58:22;10.33;;;6.13;;
15266;SDS011;7735;49.144;8.668;2023-06-22T06:00:50;12.77;;;6.63;;
15266;SDS011;7735;49.144;8.668;2023-06-22T06:03:18;13.37;;;6.20;;
15266;SDS011;7735;49.144;8.668;2023-06-22T06:05:45;10.00;;;5.70;;
15266;SDS011;7735;49.144;8.668;2023-06-22T06:08:12;9.97;;;5.90;;
15266;SDS011;7735;49.144;8.668;2023-06-22T06:10:39;14.47;;;5.57;;
15266;SDS011;7735;49.144;8.668;2023-06-22T06:13:05;13.63;;;6.07;;
15266;SDS011;7735;49.144;8.668;2023-06-22T06:15:33;9.87;;;6.20;;
15266;SDS011;7735;49.144;8.668;2023-06-22T06:18:01;13.57;;;5.93;;
15266;SDS011;7735;49.144;8.668;2023-06-22T06:20:30;11.13;;;6.20;;
15266;SDS011;7735;49.144;8.668;2023-06-22T06:23:17;8.57;;;5.87;;
15266;SDS011;7735;49.144;8.668;2023-06-22T06:25:43;8.43;;;5.33;;
15266;SDS011;7735;49.144;8.668;2023-06-22T06:28:10;9.17;;;5.43;;
15266;SDS011;7735;49.144;8.668;2023-06-22T06:30:36;8.83;;;6.07;;
15266;SDS011;7735;49.144;8.668;2023-06-22T06:33:04;9.23;;;5.60;;
15266;SDS011;7735;49.144;8.668;2023-06-22T06:35:33;7.80;;;5.70;;
15266;SDS011;7735;49.144;8.668;2023-06-22T06:38:01;10.17;;;6.63;;
15266;SDS011;7735;49.144;8.668;2023-06-22T06:40:27;9.10;;;5.70;;
15266;SDS011;7735;49.144;8.668;2023-06-22T06:42:54;9.93;;;5.93;;
15266;SDS011;7735;49.144;8.668;2023-06-22T06:45:21;8.77;;;5.93;;
15266;SDS011;7735;49.144;8.668;2023-06-22T06:47:49;7.93;;;5.40;;
15266;SDS011;7735;49.144;8.668;2023-06-22T06:50:18;6.80;;;5.30;;
15266;SDS011;7735;49.144;8.668;2023-06-22T06:52:45;11.50;;;6.10;;
15266;SDS011;7735;49.144;8.668;2023-06-22T06:55:12;8.63;;;5.07;;
15266;SDS011;7735;49.144;8.668;2023-06-22T06:57:39;9.73;;;5.90;;
15266;SDS011;7735;49.144;8.668;2023-06-22T07:00:07;7.97;;;5.27;;
15266;SDS011;7735;49.144;8.668;2023-06-22T07:02:37;7.70;;;5.73;;
15266;SDS011;7735;49.144;8.668;2023-06-22T07:05:04;9.97;;;5.80;;
15266;SDS011;7735;49.144;8.668;2023-06-22T07:07:32;9.27;;;5.47;;
15266;SDS011;7735;49.144;8.668;2023-06-22T07:09:59;8.67;;;5.83;;
15266;SDS011;7735;49.144;8.668;2023-06-22T07:12:26;9.90;;;5.50;;
15266;SDS011;7735;49.144;8.668;2023-06-22T07:14:52;9.07;;;6.07;;
15266;SDS011;7735;49.144;8.668;2023-06-22T07:17:19;6.20;;;5.03;;
15266;SDS011;7735;49.144;8.668;2023-06-22T07:19:46;8.63;;;5.60;;
15266;SDS011;7735;49.144;8.668;2023-06-22T07:22:12;10.47;;;5.33;;
15266;SDS011;7735;49.144;8.668;2023-06-22T07:24:40;7.13;;;5.27;;
15266;SDS011;7735;49.144;8.668;2023-06-22T07:27:07;7.93;;;5.23;;
15266;SDS011;7735;49.144;8.668;2023-06-22T07:29:36;8.97;;;5.50;;
15266;SDS011;7735;49.144;8.668;2023-06-22T07:32:05;8.80;;;4.80;;
15266;SDS011;7735;49.144;8.668;2023-06-22T07:34:32;6.23;;;5.13;;
15266;SDS011;7735;49.144;8.668;2023-06-22T07:36:58;8.23;;;4.90;;
15266;SDS011;7735;49.144;8.668;2023-06-22T07:39:25;7.70;;;4.80;;
15266;SDS011;7735;49.144;8.668;2023-06-22T07:41:54;9.40;;;5.13;;
15266;SDS011;7735;49.144;8.668;2023-06-22T07:44:21;6.37;;;5.00;;
15266;SDS011;7735;49.144;8.668;2023-06-22T07:46:47;6.77;;;5.07;;
15266;SDS011;7735;49.144;8.668;2023-06-22T07:49:14;6.90;;;4.60;;
15266;SDS011;7735;49.144;8.668;2023-06-22T07:51:41;10.43;;;5.23;;
15266;SDS011;7735;49.144;8.668;2023-06-22T07:54:08;10.17;;;5.70;;
15266;SDS011;7735;49.144;8.668;2023-06-22T07:56:35;7.90;;;4.70;;
15266;SDS011;7735;49.144;8.668;2023-06-22T07:59:04;7.53;;;4.87;;
15266;SDS011;7735;49.144;8.668;2023-06-22T08:01:30;6.10;;;4.80;;
15266;SDS011;7735;49.144;8.668;2023-06-22T08:03:57;6.43;;;4.30;;
15266;SDS011;7735;49.144;8.668;2023-06-22T08:06:24;7.50;;;4.43;;
15266;SDS011;7735;49.144;8.668;2023-06-22T08:12:13;8.57;;;4.80;;
15266;SDS011;7735;49.144;8.668;2023-06-22T08:14:41;6.33;;;4.23;;
15266;SDS011;7735;49.144;8.668;2023-06-22T08:17:11;6.63;;;4.80;;
15266;SDS011;7735;49.144;8.668;2023-06-22T08:19:39;8.40;;;4.93;;
15266;SDS011;7735;49.144;8.668;2023-06-22T08:22:06;6.63;;;4.60;;
15266;SDS011;7735;49.144;8.668;2023-06-22T08:24:33;6.10;;;4.50;;
15266;SDS011;7735;49.144;8.668;2023-06-22T08:26:59;8.73;;;4.70;;
15266;SDS011;7735;49.144;8.668;2023-06-22T08:29:26;8.83;;;4.80;;
15266;SDS011;7735;49.144;8.668;2023-06-22T08:31:54;7.73;;;4.90;;
15266;SDS011;7735;49.144;8.668;2023-06-22T08:34:21;9.00;;;5.05;;
15266;SDS011;7735;49.144;8.668;2023-06-22T08:36:50;6.55;;;4.95;;
15266;SDS011;7735;49.144;8.668;2023-06-22T08:39:17;7.35;;;4.47;;
15266;SDS011;7735;49.144;8.668;2023-06-22T08:41:45;6.80;;;4.13;;
15266;SDS011;7735;49.144;8.668;2023-06-22T08:44:11;6.82;;;5.22;;
15266;SDS011;7735;49.144;8.668;2023-06-22T08:46:38;6.55;;;4.78;;
15266;SDS011;7735;49.144;8.668;2023-06-22T08:49:07;6.90;;;4.68;;
15266;SDS011;7735;49.144;8.668;2023-06-22T08:51:34;6.50;;;4.63;;
15266;SDS011;7735;49.144;8.668;2023-06-22T08:54:01;8.00;;;4.90;;
15266;SDS011;7735;49.144;8.668;2023-06-22T08:56:28;9.98;;;4.53;;
15266;SDS011;7735;49.144;8.668;2023-06-22T08:58:55;6.85;;;4.63;;
15266;SDS011;7735;49.144;8.668;2023-06-22T09:01:22;8.25;;;4.53;;
15266;SDS011;7735;49.144;8.668;2023-06-22T09:03:50;8.75;;;5.63;;
15266;SDS011;7735;49.144;8.668;2023-06-22T09:06:24;5.75;;;4.00;;
15266;SDS011;7735;49.144;8.668;2023-06-22T09:08:51;8.02;;;4.72;;
15266;SDS011;7735;49.144;8.668;2023-06-22T09:11:18;10.13;;;4.40;;
15266;SDS011;7735;49.144;8.668;2023-06-22T09:13:44;5.53;;;4.50;;
15266;SDS011;7735;49.144;8.668;2023-06-22T09:16:12;6.95;;;4.45;;
15266;SDS011;7735;49.144;8.668;2023-06-22T09:18:40;6.47;;;3.67;;
15266;SDS011;7735;49.144;8.668;2023-06-22T09:21:07;8.88;;;4.43;;
15266;SDS011;7735;49.144;8.668;2023-06-22T09:23:35;5.65;;;4.07;;
15266;SDS011;7735;49.144;8.668;2023-06-22T09:26:02;7.38;;;3.90;;
15266;SDS011;7735;49.144;8.668;2023-06-22T09:28:29;5.80;;;4.00;;
15266;SDS011;7735;49.144;8.668;2023-06-22T09:30:55;6.32;;;4.30;;
15266;SDS011;7735;49.144;8.668;2023-06-22T09:33:23;6.30;;;3.95;;
15266;SDS011;7735;49.144;8.668;2023-06-22T09:35:49;4.90;;;4.00;;
15266;SDS011;7735;49.144;8.668;2023-06-22T09:38:16;6.57;;;4.32;;
15266;SDS011;7735;49.144;8.668;2023-06-22T09:40:44;8.07;;;4.93;;
15266;SDS011;7735;49.144;8.668;2023-06-22T09:43:11;6.43;;;4.72;;
15266;SDS011;7735;49.144;8.668;2023-06-22T09:45:38;6.97;;;4.30;;
15266;SDS011;7735;49.144;8.668;2023-06-22T09:48:05;6.22;;;4.28;;
15266;SDS011;7735;49.144;8.668;2023-06-22T09:50:31;5.45;;;4.05;;
15266;SDS011;7735;49.144;8.668;2023-06-22T09:52:58;6.05;;;4.32;;
15266;SDS011;7735;49.144;8.668;2023-06-22T09:55:25;6.05;;;3.88;;
15266;SDS011;7735;49.144;8.668;2023-06-22T09:57:58;4.88;;;3.78;;
15266;SDS011;7735;49.144;8.668;2023-06-22T10:00:25;7.20;;;4.60;;
15266;SDS011;7735;49.144;8.668;2023-06-22T10:02:52;5.97;;;4.13;;
15266;SDS011;7735;49.144;8.668;2023-06-22T10:05:20;6.38;;;4.03;;
15266;SDS011;7735;49.144;8.668;2023-06-22T10:07:47;8.93;;;4.25;;
15266;SDS011;7735;49.144;8.668;2023-06-22T10:10:14;6.32;;;4.38;;
15266;SDS011;7735;49.144;8.668;2023-06-22T10:12:41;9.90;;;4.53;;
15266;SDS011;7735;49.144;8.668;2023-06-22T10:15:11;6.85;;;4.13;;
15266;SDS011;7735;49.144;8.668;2023-06-22T10:17:38;6.50;;;3.90;;
15266;SDS011;7735;49.144;8.668;2023-06-22T10:20:07;7.72;;;4.10;;
15266;SDS011;7735;49.144;8.668;2023-06-22T10:22:37;6.00;;;4.25;;
15266;SDS011;7735;49.144;8.668;2023-06-22T10:25:05;6.35;;;4.15;;
15266;SDS011;7735;49.144;8.668;2023-06-22T10:27:32;5.43;;;4.20;;
15266;SDS011;7735;49.144;8.668;2023-06-22T10:29:59;6.75;;;3.95;;
15266;SDS011;7735;49.144;8.668;2023-06-22T10:32:27;9.18;;;4.90;;
15266;SDS011;7735;49.144;8.668;2023-06-22T10:34:54;11.18;;;4.38;;
15266;SDS011;7735;49.144;8.668;2023-06-22T10:37:20;7.55;;;4.47;;
15266;SDS011;7735;49.144;8.668;2023-06-22T10:39:47;6.63;;;3.85;;
15266;SDS011;7735;49.144;8.668;2023-06-22T10:42:14;5.88;;;4.10;;
15266;SDS011;7735;49.144;8.668;2023-06-22T10:44:40;7.40;;;4.25;;
15266;SDS011;7735;49.144;8.668;2023-06-22T10:47:09;6.68;;;4.07;;
15266;SDS011;7735;49.144;8.668;2023-06-22T10:49:37;8.18;;;4.75;;
15266;SDS011;7735;49.144;8.668;2023-06-22T10:52:05;7.95;;;4.43;;
15266;SDS011;7735;49.144;8.668;2023-06-22T10:54:32;7.32;;;4.60;;
15266;SDS011;7735;49.144;8.668;2023-06-22T10:56:59;5.82;;;4.38;;
15266;SDS011;7735;49.144;8.668;2023-06-22T10:59:25;5.68;;;4.00;;
15266;SDS011;7735;49.144;8.668;2023-06-22T11:01:53;5.88;;;3.97;;
15266;SDS011;7735;49.144;8.668;2023-06-22T11:04:21;6.95;;;4.00;;
15266;SDS011;7735;49.144;8.668;2023-06-22T11:06:49;6.18;;;3.83;;
15266;SDS011;7735;49.144;8.668;2023-06-22T11:09:18;10.63;;;4.13;;
15266;SDS011;7735;49.144;8.668;2023-06-22T11:11:46;6.50;;;3.97;;
15266;SDS011;7735;49.144;8.668;2023-06-22T11:14:12;9.20;;;4.28;;
15266;SDS011;7735;49.144;8.668;2023-06-22T11:16:39;8.15;;;4.85;;
15266;SDS011;7735;49.144;8.668;2023-06-22T11:19:06;6.97;;;3.55;;
15266;SDS011;7735;49.144;8.668;2023-06-22T11:21:32;8.23;;;4.50;;
15266;SDS011;7735;49.144;8.668;2023-06-22T11:24:00;6.35;;;4.53;;
15266;SDS011;7735;49.144;8.668;2023-06-22T11:26:27;6.95;;;4.15;;
15266;SDS011;7735;49.144;8.668;2023-06-22T11:28:54;6.28;;;3.83;;
15266;SDS011;7735;49.144;8.668;2023-06-22T11:31:21;7.72;;;4.13;;
15266;SDS011;7735;49.144;8.668;2023-06-22T11:33:48;6.28;;;4.07;;
15266;SDS011;7735;49.144;8.668;2023-06-22T11:36:14;5.30;;;3.85;;
15266;SDS011;7735;49.144;8.668;2023-06-22T11:38:41;5.53;;;4.32;;
15266;SDS011;7735;49.144;8.668;2023-06-22T11:41:09;6.43;;;3.75;;
15266;SDS011;7735;49.144;8.668;2023-06-22T11:43:36;6.47;;;4.15;;
15266;SDS011;7735;49.144;8.668;2023-06-22T11:46:03;5.38;;;4.32;;
15266;SDS011;7735;49.144;8.668;2023-06-22T11:48:31;9.35;;;4.43;;
15266;SDS011;7735;49.144;8.668;2023-06-22T11:50:58;9.93;;;4.50;;
15266;SDS011;7735;49.144;8.668;2023-06-22T11:53:26;9.32;;;4.63;;
15266;SDS011;7735;49.144;8.668;2023-06-22T11:55:53;8.05;;;4.30;;
15266;SDS011;7735;49.144;8.668;2023-06-22T11:58:21;7.72;;;4.18;;
15266;SDS011;7735;49.144;8.668;2023-06-22T12:00:48;8.52;;;4.40;;
15266;SDS011;7735;49.144;8.668;2023-06-22T12:03:17;6.32;;;4.50;;
15266;SDS011;7735;49.144;8.668;2023-06-22T12:05:43;9.00;;;4.80;;
15266;SDS011;7735;49.144;8.668;2023-06-22T12:08:10;6.63;;;4.35;;
15266;SDS011;7735;49.144;8.668;2023-06-22T12:10:37;9.30;;;5.07;;
15266;SDS011;7735;49.144;8.668;2023-06-22T12:13:03;9.35;;;4.97;;
15266;SDS011;7735;49.144;8.668;2023-06-22T12:15:34;5.50;;;4.13;;
15266;SDS011;7735;49.144;8.668;2023-06-22T12:18:00;7.35;;;4.70;;
15266;SDS011;7735;49.144;8.668;2023-06-22T12:20:27;10.15;;;5.03;;
15266;SDS011;7735;49.144;8.668;2023-06-22T12:22:54;7.70;;;3.90;;
15266;SDS011;7735;49.144;8.668;2023-06-22T12:25:23;9.57;;;4.47;;
15266;SDS011;7735;49.144;8.668;2023-06-22T12:27:49;8.15;;;4.70;;
15266;SDS011;7735;49.144;8.668;2023-06-22T12:30:16;7.50;;;4.32;;
15266;SDS011;7735;49.144;8.668;2023-06-22T12:32:44;7.35;;;4.53;;
15266;SDS011;7735;49.144;8.668;2023-06-22T12:35:11;6.60;;;4.53;;
15266;SDS011;7735;49.144;8.668;2023-06-22T12:37:39;7.97;;;4.53;;
15266;SDS011;7735;49.144;8.668;2023-06-22T12:40:07;8.50;;;5.10;;
15266;SDS011;7735;49.144;8.668;2023-06-22T12:42:34;5.80;;;4.10;;
15266;SDS011;7735;49.144;8.668;2023-06-22T12:45:00;6.75;;;4.15;;
15266;SDS011;7735;49.144;8.668;2023-06-22T12:47:27;6.18;;;4.13;;
15266;SDS011;7735;49.144;8.668;2023-06-22T12:49:55;4.60;;;3.70;;
15266;SDS011;7735;49.144;8.668;2023-06-22T12:52:22;7.20;;;4.50;;
15266;SDS011;7735;49.144;8.668;2023-06-22T12:54:48;7.57;;;4.80;;
15266;SDS011;7735;49.144;8.668;2023-06-22T12:57:15;9.27;;;4.65;;
15266;SDS011;7735;49.144;8.668;2023-06-22T12:59:42;7.28;;;4.03;;
15266;SDS011;7735;49.144;8.668;2023-06-22T13:02:09;6.90;;;4.40;;
15266;SDS011;7735;49.144;8.668;2023-06-22T13:04:35;8.05;;;4.15;;
15266;SDS011;7735;49.144;8.668;2023-06-22T13:07:04;6.38;;;4.20;;
15266;SDS011;7735;49.144;8.668;2023-06-22T13:09:30;7.15;;;4.50;;
15266;SDS011;7735;49.144;8.668;2023-06-22T13:11:57;10.77;;;4.70;;
15266;SDS011;7735;49.144;8.668;2023-06-22T13:14:24;7.78;;;4.70;;
15266;SDS011;7735;49.144;8.668;2023-06-22T13:16:50;6.00;;;4.95;;
15266;SDS011;7735;49.144;8.668;2023-06-22T13:19:17;12.27;;;4.70;;
15266;SDS011;7735;49.144;8.668;2023-06-22T13:21:43;7.55;;;4.85;;
15266;SDS011;7735;49.144;8.668;2023-06-22T13:24:11;8.45;;;4.95;;
15266;SDS011;7735;49.144;8.668;2023-06-22T13:26:38;8.40;;;4.60;;
15266;SDS011;7735;49.144;8.668;2023-06-22T13:29:05;8.88;;;4.75;;
15266;SDS011;7735;49.144;8.668;2023-06-22T13:31:31;8.00;;;4.35;;
15266;SDS011;7735;49.144;8.668;2023-06-22T13:33:58;6.05;;;4.38;;
15266;SDS011;7735;49.144;8.668;2023-06-22T13:36:24;8.30;;;4.90;;
15266;SDS011;7735;49.144;8.668;2023-06-22T13:38:51;8.00;;;5.38;;
15266;SDS011;7735;49.144;8.668;2023-06-22T13:41:19;5.47;;;4.28;;
15266;SDS011;7735;49.144;8.668;2023-06-22T13:43:48;7.38;;;4.60;;
15266;SDS011;7735;49.144;8.668;2023-06-22T13:46:15;9.77;;;4.68;;
15266;SDS011;7735;49.144;8.668;2023-06-22T13:48:41;7.25;;;4.28;;
15266;SDS011;7735;49.144;8.668;2023-06-22T13:51:08;6.53;;;4.80;;
15266;SDS011;7735;49.144;8.668;2023-06-22T13:53:34;7.10;;;4.60;;
15266;SDS011;7735;49.144;8.668;2023-06-22T13:56:01;10.27;;;4.68;;
15266;SDS011;7735;49.144;8.668;2023-06-22T13:58:29;9.50;;;4.25;;
15266;SDS011;7735;49.144;8.668;2023-06-22T14:00:56;6.15;;;4.15;;
15266;SDS011;7735;49.144;8.668;2023-06-22T14:03:22;8.15;;;4.30;;
15266;SDS011;7735;49.144;8.668;2023-06-22T14:05:49;7.07;;;5.03;;
15266;SDS011;7735;49.144;8.668;2023-06-22T14:08:19;10.13;;;5.30;;
15266;SDS011;7735;49.144;8.668;2023-06-22T14:10:48;7.18;;;4.90;;
15266;SDS011;7735;49.144;8.668;2023-06-22T14:13:15;10.68;;;7.22;;
15266;SDS011;7735;49.144;8.668;2023-06-22T14:15:43;6.68;;;4.75;;
15266;SDS011;7735;49.144;8.668;2023-06-22T14:18:09;10.80;;;5.78;;
15266;SDS011;7735;49.144;8.668;2023-06-22T14:20:36;7.95;;;5.20;;
15266;SDS011;7735;49.144;8.668;2023-06-22T14:23:05;6.57;;;5.05;;
15266;SDS011;7735;49.144;8.668;2023-06-22T14:25:31;10.50;;;5.53;;
15266;SDS011;7735;49.144;8.668;2023-06-22T14:27:58;7.45;;;5.30;;
15266;SDS011;7735;49.144;8.668;2023-06-22T14:30:24;11.43;;;5.57;;
15266;SDS011;7735;49.144;8.668;2023-06-22T14:32:52;10.65;;;5.18;;
15266;SDS011;7735;49.144;8.668;2023-06-22T14:35:19;12.43;;;5.50;;
15266;SDS011;7735;49.144;8.668;2023-06-22T14:37:46;10.65;;;5.50;;
15266;SDS011;7735;49.144;8.668;2023-06-22T14:40:13;6.82;;;5.18;;
15266;SDS011;7735;49.144;8.668;2023-06-22T14:42:41;7.95;;;5.13;;
15266;SDS011;7735;49.144;8.668;2023-06-22T14:45:08;10.40;;;5.43;;
15266;SDS011;7735;49.144;8.668;2023-06-22T14:47:35;9.35;;;5.50;;
15266;SDS011;7735;49.144;8.668;2023-06-22T14:50:05;15.02;;;6.03;;
15266;SDS011;7735;49.144;8.668;2023-06-22T14:52:32;9.30;;;5.05;;
15266;SDS011;7735;49.144;8.668;2023-06-22T14:54:58;11.25;;;5.25;;
15266;SDS011;7735;49.144;8.668;2023-06-22T14:57:25;6.97;;;4.70;;
15266;SDS011;7735;49.144;8.668;2023-06-22T14:59:52;11.82;;;4.68;;
15266;SDS011;7735;49.144;8.668;2023-06-22T15:02:19;10.98;;;5.35;;
15266;SDS011;7735;49.144;8.668;2023-06-22T15:04:45;12.98;;;4.82;;
15266;SDS011;7735;49.144;8.668;2023-06-22T15:07:17;8.95;;;5.10;;
15266;SDS011;7735;49.144;8.668;2023-06-22T15:09:45;8.27;;;4.45;;
15266;SDS011;7735;49.144;8.668;2023-06-22T15:12:11;8.95;;;5.13;;